CheckWX is a tool to help pilots better visualize weather data.  It is not intended as a substitute for an official pre-flight weather briefing.

20:11:28 UTC

SLTR METAR
Teniente Av. Jorge Henrich Arauz Airport
Trinidad, Bolivia
Current

1 hour ago

SLTR 261900Z 15010KT 9999 SCT006 BKN015 OVC070 14/13 Q1013
Observed
Jun-26 @ 19:00 UTC
Wind
  • 150° at 10 KTS
Visibility
10,000+ meters
Flight Rules
MVFR
Cloud Levels
  • Scattered at 600' AGL
  • Broken at 1,500' AGL
  • Overcast at 7,000' AGL
Temperature
14°C / 57°F
Dewpoint
13°C / 55°F
Humidity
94%
Altimeter
29.91" Hg
Pressure
1012.92 hPa
Previous

2 hours ago

SLTR 261830Z 13010KT 9999 SCT006 BKN015 OVC070 14/13 Q1013
Observed
Jun-26 @ 18:30 UTC
Wind
  • 130° at 10 KTS
Visibility
10,000+ meters
Flight Rules
MVFR
Cloud Levels
  • Scattered at 600' AGL
  • Broken at 1,500' AGL
  • Overcast at 7,000' AGL
Temperature
14°C / 57°F
Dewpoint
13°C / 55°F
Humidity
94%
Altimeter
29.91" Hg
Pressure
1012.92 hPa
Previous

2 hours ago

SLTR 261800Z 14010KT 8000 -RA BKN006 FEW020CB OVC070 13/12 Q1014
Observed
Jun-26 @ 18:00 UTC
Wind
  • 140° at 10 KTS
Visibility
8,000 meters
Flight Rules
IFR
Conditions
Light Rain
Cloud Levels
  • Broken at 600' AGL
  • Few at 2,000' AGL
  • Overcast at 7,000' AGL
Temperature
13°C / 55°F
Dewpoint
12°C / 54°F
Humidity
94%
Altimeter
29.94" Hg
Pressure
1013.92 hPa